Time;durP1;ratioP1;P1;durP2;ratioP2;P2;SDS_P1;SDS_P2;PMS_P1;PMS_P2;Temp;Humidity;BMP_temperature;BMP_pressure;BME280_temperature;BME280_humidity;BME280_pressure;Samples;Min_cycle;Max_cycle;Signal;HPM_P1;HPM_P2
2021/12/26 00:00:07;;;;;;;10.63;6.10;;;;;;;0.16;57.52;100281.00;1738017;82;21859;-52
2021/12/26 00:03:13;;;;;;;12.70;6.83;;;;;;;0.14;57.73;100268.13;1737419;82;21229;-51
2021/12/26 00:06:25;;;;;;;11.35;6.42;;;;;;;0.20;58.05;100290.07;1738879;80;21508;-54
2021/12/26 00:09:33;;;;;;;13.40;7.10;;;;;;;0.27;58.19;100302.09;1770373;80;21347;-51
2021/12/26 00:12:40;;;;;;;11.55;4.70;;;;;;;0.34;58.11;100303.84;1737544;82;21348;-53
2021/12/26 00:15:48;;;;;;;8.03;4.65;;;;;;;0.39;57.74;100317.83;1724952;82;21836;-51
2021/12/26 00:18:55;;;;;;;7.50;4.87;;;;;;;0.33;57.37;100311.08;1737548;82;21336;-51
2021/12/26 00:22:05;;;;;;;8.98;5.45;;;;;;;0.36;57.35;100320.27;1738290;81;21742;-53
2021/12/26 00:25:11;;;;;;;7.58;4.85;;;;;;;0.39;57.27;100320.52;1737610;82;21359;-52
2021/12/26 00:28:18;;;;;;;8.35;4.50;;;;;;;0.39;57.10;100317.83;1738561;82;21354;-52
2021/12/26 00:31:24;;;;;;;6.47;4.28;;;;;;;0.39;56.91;100309.27;1737898;82;21201;-51
2021/12/26 00:34:32;;;;;;;8.25;4.75;;;;;;;0.44;56.96;100308.92;1738595;81;21252;-51
2021/12/26 00:37:37;;;;;;;8.85;4.62;;;;;;;0.45;56.91;100308.81;1737751;82;21383;-52
2021/12/26 00:40:47;;;;;;;6.80;4.72;;;;;;;0.42;56.83;100311.73;1739825;81;21205;-51
2021/12/26 00:43:54;;;;;;;8.23;4.50;;;;;;;0.38;56.96;100315.61;1737554;82;21372;-50
2021/12/26 00:47:02;;;;;;;7.80;4.92;;;;;;;0.35;56.79;100310.45;1742414;81;21928;-52
2021/12/26 00:50:06;;;;;;;7.90;5.00;;;;;;;0.29;56.62;100314.08;1727756;81;21225;-53
2021/12/26 00:53:12;;;;;;;6.80;4.62;;;;;;;0.20;56.54;100315.64;1737959;82;21606;-52
2021/12/26 00:56:19;;;;;;;8.03;4.75;;;;;;;0.03;56.73;100318.70;1739109;81;21868;-51
2021/12/26 00:59:24;;;;;;;8.63;5.15;;;;;;;-0.08;56.98;100317.28;1740607;81;21427;-52
2021/12/26 01:02:31;;;;;;;8.48;5.10;;;;;;;-0.16;57.39;100316.97;1737788;81;21217;-52
2021/12/26 01:05:39;;;;;;;9.65;4.95;;;;;;;-0.21;57.52;100319.13;1737498;82;21468;-53
2021/12/26 01:08:48;;;;;;;7.65;4.67;;;;;;;-0.27;57.80;100316.37;1749395;80;21259;-53
2021/12/26 01:11:55;;;;;;;7.03;4.37;;;;;;;-0.30;57.90;100311.22;1780487;80;21373;-53
2021/12/26 01:15:05;;;;;;;9.90;4.87;;;;;;;-0.39;58.10;100330.70;1748525;81;21220;-54
2021/12/26 01:18:12;;;;;;;8.53;5.08;;;;;;;-0.45;58.42;100319.52;1769406;80;21185;-54
2021/12/26 01:21:25;;;;;;;7.83;4.67;;;;;;;-0.48;58.65;100318.39;1770567;80;21780;-53
2021/12/26 01:24:32;;;;;;;8.45;4.92;;;;;;;-0.56;58.71;100328.81;1769467;80;21496;-55
2021/12/26 01:27:37;;;;;;;7.80;4.67;;;;;;;-0.63;58.98;100327.03;1769589;80;21370;-55
2021/12/26 01:30:45;;;;;;;10.55;4.90;;;;;;;-0.74;58.95;100326.92;1740279;81;21371;-52
2021/12/26 01:33:51;;;;;;;8.20;4.87;;;;;;;-0.79;59.24;100322.82;1738646;81;21331;-52
2021/12/26 01:37:06;;;;;;;8.05;5.25;;;;;;;-0.85;59.39;100324.59;1736701;81;21363;-53
2021/12/26 01:40:19;;;;;;;8.23;4.83;;;;;;;-0.90;59.62;100316.85;1736712;82;21383;-52
2021/12/26 01:43:30;;;;;;;8.83;5.10;;;;;;;-0.94;59.65;100318.52;1738209;81;21264;-53
2021/12/26 01:46:47;;;;;;;7.67;5.25;;;;;;;-0.98;59.78;100321.89;1737498;82;21371;-53
2021/12/26 01:49:55;;;;;;;9.83;5.28;;;;;;;-0.97;59.83;100331.69;1738554;81;21241;-53
2021/12/26 01:53:01;;;;;;;9.80;5.22;;;;;;;-0.94;59.90;100335.98;1756500;80;21635;-53
2021/12/26 01:56:08;;;;;;;11.45;5.03;;;;;;;-1.01;59.55;100342.72;1771268;79;21205;-52
2021/12/26 01:59:17;;;;;;;8.08;5.40;;;;;;;-1.08;59.37;100340.09;1774365;79;21352;-53
2021/12/26 02:02:28;;;;;;;9.83;5.53;;;;;;;-1.15;59.33;100333.40;1770087;79;21398;-52
2021/12/26 02:05:33;;;;;;;9.23;5.70;;;;;;;-1.27;59.07;100339.13;1751091;79;21752;-52
2021/12/26 02:08:40;;;;;;;7.80;5.55;;;;;;;-1.37;59.03;100347.88;1770356;79;21686;-54
2021/12/26 02:11:48;;;;;;;7.85;4.85;;;;;;;-1.46;59.23;100344.00;1811816;78;21848;-53
2021/12/26 02:14:55;;;;;;;9.70;5.12;;;;;;;-1.49;59.47;100346.86;1803229;79;21181;-52
2021/12/26 02:18:11;;;;;;;8.50;4.80;;;;;;;-1.49;59.58;100351.39;1767529;80;21829;-53
2021/12/26 02:27:48;;;;;;;8.93;5.72;;;;;;;-1.43;59.93;100361.25;1737972;80;21862;-53
2021/12/26 02:30:54;;;;;;;7.85;5.10;;;;;;;-1.41;59.99;100366.52;1767795;80;21702;-53
2021/12/26 02:34:02;;;;;;;8.43;5.37;;;;;;;-1.39;60.02;100365.91;1767877;80;21848;-53
2021/12/26 02:37:09;;;;;;;8.25;4.47;;;;;;;-1.36;59.96;100372.44;1767833;80;21213;-53
2021/12/26 02:40:16;;;;;;;9.20;4.55;;;;;;;-1.36;59.66;100380.50;1752932;80;21748;-52
2021/12/26 02:43:26;;;;;;;7.42;4.92;;;;;;;-1.46;59.58;100369.98;1767874;80;21375;-53
2021/12/26 02:46:34;;;;;;;15.80;9.63;;;;;;;-1.50;59.84;100393.46;1768200;80;21398;-53
2021/12/26 02:49:40;;;;;;;17.37;10.40;;;;;;;-1.46;60.21;100390.11;1768018;80;21189;-54
2021/12/26 02:52:45;;;;;;;12.05;7.30;;;;;;;-1.43;60.35;100385.41;1768081;80;21356;-53
2021/12/26 02:55:50;;;;;;;13.72;7.78;;;;;;;-1.41;60.46;100384.80;1768717;80;21362;-53
2021/12/26 02:58:56;;;;;;;12.00;7.03;;;;;;;-1.40;60.55;100385.20;1769127;79;21632;-53
2021/12/26 03:02:10;;;;;;;11.63;7.42;;;;;;;-1.35;60.61;100380.39;1769978;79;21217;-52
2021/12/26 03:05:18;;;;;;;10.20;5.58;;;;;;;-1.31;60.43;100385.05;1768754;80;21414;-53
2021/12/26 03:08:24;;;;;;;7.65;5.00;;;;;;;-1.25;60.35;100387.36;1768618;80;21197;-53
2021/12/26 03:11:30;;;;;;;7.33;4.28;;;;;;;-1.27;60.15;100398.67;1776520;79;21339;-53
2021/12/26 03:14:38;;;;;;;10.13;5.50;;;;;;;-1.29;60.05;100384.01;1801664;79;21390;-53
2021/12/26 03:17:46;;;;;;;8.45;5.30;;;;;;;-1.34;60.07;100398.69;1811232;79;21223;-52
2021/12/26 03:20:54;;;;;;;8.68;5.28;;;;;;;-1.35;60.21;100406.37;1778670;79;21264;-52
2021/12/26 03:23:59;;;;;;;8.20;5.05;;;;;;;-1.34;60.33;100399.55;1811418;79;21228;-53
2021/12/26 03:27:14;;;;;;;8.33;5.10;;;;;;;-1.31;60.34;100391.30;1811462;79;21215;-53
2021/12/26 03:30:22;;;;;;;8.80;5.35;;;;;;;-1.27;60.38;100387.47;1796007;79;21237;-53
2021/12/26 03:33:27;;;;;;;9.73;6.58;;;;;;;-1.20;60.50;100386.08;1805474;79;21220;-53
2021/12/26 03:36:32;;;;;;;10.23;6.15;;;;;;;-1.15;60.59;100388.45;1772621;79;21359;-53
2021/12/26 03:39:40;;;;;;;10.03;6.25;;;;;;;-1.14;60.34;100395.56;1734979;82;21216;-53
2021/12/26 03:42:47;;;;;;;9.98;5.83;;;;;;;-1.13;60.27;100397.27;1800105;79;21339;-54
2021/12/26 03:45:55;;;;;;;10.63;5.95;;;;;;;-1.11;60.19;100393.51;1767439;80;21344;-52
2021/12/26 03:49:05;;;;;;;8.53;5.42;;;;;;;-1.09;60.14;100400.98;1767313;80;21220;-53
2021/12/26 03:52:08;;;;;;;9.63;5.67;;;;;;;-1.09;60.03;100400.98;1767390;80;21320;-53
2021/12/26 03:55:14;;;;;;;8.93;5.40;;;;;;;-1.08;59.98;100396.02;1778898;79;21742;-53
2021/12/26 03:58:22;;;;;;;9.80;5.45;;;;;;;-1.09;59.82;100410.86;1758557;80;21343;-53
2021/12/26 04:01:29;;;;;;;9.50;5.87;;;;;;;-1.07;59.99;100407.60;1768081;80;21407;-53
2021/12/26 04:04:36;;;;;;;12.50;5.67;;;;;;;-1.04;60.00;100419.48;1768337;80;21194;-54
2021/12/26 04:07:43;;;;;;;10.63;6.33;;;;;;;-1.06;59.96;100416.90;1761917;80;21327;-54
2021/12/26 04:10:48;;;;;;;11.60;6.65;;;;;;;-1.07;59.96;100430.43;1769123;79;21352;-53
2021/12/26 04:13:57;;;;;;;9.55;5.45;;;;;;;-1.08;60.08;100423.34;1756088;80;21682;-54
2021/12/26 04:17:05;;;;;;;9.55;6.42;;;;;;;-1.08;60.25;100424.22;1769716;80;21347;-55
2021/12/26 04:20:15;;;;;;;7.67;4.78;;;;;;;-1.09;60.32;100422.95;1768283;80;21355;-54
2021/12/26 04:23:22;;;;;;;7.85;4.28;;;;;;;-1.11;60.43;100427.08;1805752;79;21338;-54
2021/12/26 04:26:29;;;;;;;15.70;7.15;;;;;;;-1.12;60.46;100426.71;1805878;79;21354;-52
2021/12/26 04:29:34;;;;;;;23.35;10.05;;;;;;;-1.16;60.51;100433.73;1805812;79;21347;-53
2021/12/26 04:32:42;;;;;;;23.85;12.40;;;;;;;-1.21;60.67;100435.85;1768768;80;21209;-54
2021/12/26 04:35:48;;;;;;;17.82;8.80;;;;;;;-1.25;60.73;100441.06;1805844;79;21337;-53
2021/12/26 04:38:53;;;;;;;17.23;8.90;;;;;;;-1.29;61.00;100435.48;1803924;79;21205;-53
2021/12/26 04:41:58;;;;;;;17.87;9.30;;;;;;;-1.35;61.29;100452.01;1805869;79;21264;-54
2021/12/26 04:45:22;;;;;;;22.33;11.80;;;;;;;-1.41;61.33;100443.02;1767741;80;21213;-53
2021/12/26 04:48:33;;;;;;;16.93;9.23;;;;;;;-1.52;61.29;100449.55;1805707;79;21331;-53
2021/12/26 04:51:40;;;;;;;19.40;10.65;;;;;;;-1.62;61.35;100460.85;1769776;80;21808;-52
2021/12/26 04:54:48;;;;;;;21.10;11.28;;;;;;;-1.67;61.59;100467.48;1769997;80;21283;-54
2021/12/26 04:57:53;;;;;;;19.95;10.08;;;;;;;-1.70;61.69;100474.39;1767841;80;21282;-53
2021/12/26 05:00:59;;;;;;;27.10;13.78;;;;;;;-1.75;61.76;100471.13;1767521;80;21347;-53
2021/12/26 05:04:07;;;;;;;22.52;10.95;;;;;;;-1.83;61.83;100470.28;1729845;82;21366;-54
2021/12/26 05:07:14;;;;;;;21.95;12.03;;;;;;;-1.92;61.94;100473.52;1766756;80;21346;-53
2021/12/26 05:10:25;;;;;;;14.23;8.18;;;;;;;-2.01;62.11;100480.80;1765704;80;21383;-54
2021/12/26 05:13:31;;;;;;;16.57;9.00;;;;;;;-2.08;62.33;100485.30;1768990;79;21363;-53
2021/12/26 05:16:37;;;;;;;17.62;8.63;;;;;;;-2.13;62.64;100496.31;1745414;82;21193;-52
2021/12/26 05:19:43;;;;;;;16.55;9.53;;;;;;;-2.18;62.79;100500.22;1749972;81;21342;-54
2021/12/26 05:22:48;;;;;;;14.78;9.65;;;;;;;-2.22;62.89;100495.52;1805749;79;21339;-53
2021/12/26 05:25:53;;;;;;;21.42;10.55;;;;;;;-2.26;63.02;100503.37;1768081;80;21359;-52
2021/12/26 05:28:59;;;;;;;36.63;15.48;;;;;;;-2.29;63.16;100503.56;1805108;79;21319;-53
2021/12/26 05:32:06;;;;;;;47.80;20.57;;;;;;;-2.33;63.24;100491.27;1770800;80;21205;-53
2021/12/26 05:35:12;;;;;;;55.45;25.82;;;;;;;-2.36;63.32;100504.02;1770942;80;21196;-54
2021/12/26 05:38:18;;;;;;;28.00;13.25;;;;;;;-2.39;63.50;100502.84;1770641;80;21435;-54
2021/12/26 05:41:25;;;;;;;23.15;11.48;;;;;;;-2.41;63.64;100517.67;1806197;79;21310;-53
2021/12/26 05:44:34;;;;;;;40.50;16.80;;;;;;;-2.45;63.74;100524.65;1765115;81;21836;-53
2021/12/26 05:47:39;;;;;;;37.88;17.32;;;;;;;-2.51;63.82;100525.89;1704773;82;21210;-53
2021/12/26 05:50:46;;;;;;;30.45;15.63;;;;;;;-2.58;63.90;100543.27;1738339;81;21363;-53
2021/12/26 05:54:07;;;;;;;;;;;;;;;-2.65;64.09;100528.98;1742920;81;21423;-54
2021/12/26 05:57:14;;;;;;;58.13;28.30;;;;;;;-2.66;64.38;100540.17;1791031;80;20306;-54
2021/12/26 06:00:25;;;;;;;122.60;51.48;;;;;;;-2.69;64.67;100545.71;1790890;80;21230;-54
2021/12/26 06:03:32;;;;;;;144.25;63.60;;;;;;;-2.67;64.83;100553.19;1791142;80;21333;-54
2021/12/26 06:06:36;;;;;;;128.72;61.98;;;;;;;-2.64;64.93;100558.83;1783077;80;21290;-53
2021/12/26 06:09:44;;;;;;;75.03;41.50;;;;;;;-2.65;64.99;100558.45;1794282;79;21194;-53
2021/12/26 06:12:50;;;;;;;36.88;20.52;;;;;;;-2.65;65.08;100563.81;1793644;80;21266;-53
2021/12/26 06:15:55;;;;;;;44.15;22.05;;;;;;;-2.63;65.16;100572.14;1793910;80;21226;-53
2021/12/26 06:19:01;;;;;;;48.83;26.75;;;;;;;-2.64;65.26;100571.77;1793939;80;21195;-54
2021/12/26 06:22:18;;;;;;;36.85;19.25;;;;;;;-2.66;65.42;100583.03;1783160;79;21742;-52
2021/12/26 06:25:30;;;;;;;41.08;21.17;;;;;;;-2.74;65.31;100592.48;1792210;79;21211;-53
2021/12/26 06:28:46;;;;;;;141.82;57.75;;;;;;;-2.82;65.61;100594.23;1794535;80;21194;-54
2021/12/26 06:32:09;;;;;;;95.32;42.10;;;;;;;-2.84;65.98;100591.27;1795406;79;21186;-54
2021/12/26 06:35:35;;;;;;;65.52;29.27;;;;;;;-2.81;66.11;100588.41;1795033;79;21766;-53
2021/12/26 06:38:57;;;;;;;185.18;96.60;;;;;;;-2.77;66.10;100592.63;1795108;79;21715;-53
2021/12/26 06:42:22;;;;;;;75.17;43.75;;;;;;;-2.72;66.08;100589.21;1794775;79;21286;-52
2021/12/26 06:45:46;;;;;;;55.52;29.23;;;;;;;-2.70;65.92;100596.70;1780390;79;21596;-54
2021/12/26 06:49:11;;;;;;;42.00;24.25;;;;;;;-2.68;65.89;100594.80;1794768;80;21336;-54
2021/12/26 06:52:16;;;;;;;45.12;26.40;;;;;;;-2.65;65.96;100595.96;1795263;79;21318;-55
2021/12/26 06:55:23;;;;;;;38.95;22.70;;;;;;;-2.62;65.93;100595.31;1794820;79;21805;-54
2021/12/26 06:58:31;;;;;;;29.25;17.37;;;;;;;-2.56;65.89;100597.64;1794259;80;21233;-54
2021/12/26 07:01:36;;;;;;;26.55;14.25;;;;;;;-2.52;65.87;100607.20;1794552;80;21216;-54
2021/12/26 07:04:41;;;;;;;24.82;14.07;;;;;;;-2.47;65.80;100606.48;1794543;80;21202;-53
2021/12/26 07:07:49;;;;;;;31.97;17.15;;;;;;;-2.43;65.65;100603.15;1794484;79;21191;-53
2021/12/26 07:10:55;;;;;;;29.57;14.85;;;;;;;-2.38;65.50;100613.13;1794587;80;21211;-53
2021/12/26 07:14:02;;;;;;;22.02;12.85;;;;;;;-2.34;65.34;100608.84;1782777;80;21290;-54
2021/12/26 07:17:10;;;;;;;23.50;15.23;;;;;;;-2.28;65.25;100607.13;1783319;79;21187;-53
2021/12/26 07:20:19;;;;;;;49.67;23.98;;;;;;;-2.23;65.18;100613.56;1760560;80;21211;-53
2021/12/26 07:23:43;;;;;;;60.08;29.32;;;;;;;-2.20;65.02;100619.61;1798183;79;21352;-55
2021/12/26 07:26:49;;;;;;;43.78;23.77;;;;;;;-2.17;65.00;100618.09;1799985;79;21277;-54
2021/12/26 07:30:08;;;;;;;30.62;16.52;;;;;;;-2.09;64.97;100622.52;1797763;79;21273;-54
2021/12/26 07:33:14;;;;;;;22.48;11.18;;;;;;;-2.04;64.82;100623.59;1800531;78;21541;-55
2021/12/26 07:36:23;;;;;;;13.88;7.45;;;;;;;-2.03;64.43;100629.36;1799822;79;21234;-54
2021/12/26 07:39:45;;;;;;;18.52;10.35;;;;;;;-2.06;64.35;100637.09;1800212;79;21190;-54
2021/12/26 07:42:55;;;;;;;16.23;7.22;;;;;;;-2.11;64.05;100634.31;1800159;79;21411;-53
2021/12/26 07:46:18;;;;;;;12.90;6.95;;;;;;;-2.18;63.97;100633.80;1804450;78;21218;-54
2021/12/26 07:49:27;;;;;;;10.30;6.12;;;;;;;-2.24;64.15;100639.99;1800515;79;21214;-54
2021/12/26 07:52:53;;;;;;;10.10;6.00;;;;;;;-2.27;64.36;100636.16;1800055;79;21225;-54
2021/12/26 07:56:18;;;;;;;9.90;6.05;;;;;;;-2.30;64.58;100635.84;1792612;79;21258;-54
2021/12/26 07:59:43;;;;;;;8.45;5.70;;;;;;;-2.33;64.80;100630.66;1800446;79;21707;-53
2021/12/26 08:03:05;;;;;;;10.47;6.37;;;;;;;-2.33;65.05;100637.86;1753953;81;21796;-53
2021/12/26 08:06:46;;;;;;;12.13;7.70;;;;;;;-2.33;65.19;100638.70;1800267;79;21924;-55
2021/12/26 08:09:54;;;;;;;13.55;7.80;;;;;;;-2.30;65.27;100637.17;1769492;79;21794;-54
2021/12/26 08:13:01;;;;;;;15.03;7.00;;;;;;;-2.34;65.39;100646.36;1770362;78;21194;-54
2021/12/26 08:16:07;;;;;;;9.70;6.17;;;;;;;-2.30;65.65;100646.55;1778565;79;21252;-54
2021/12/26 08:19:16;;;;;;;12.50;6.28;;;;;;;-2.27;65.59;100643.73;1804699;79;21320;-54
2021/12/26 08:22:27;;;;;;;18.15;10.30;;;;;;;-2.24;65.48;100642.67;1799059;79;21315;-54
2021/12/26 08:25:33;;;;;;;14.25;7.67;;;;;;;-2.23;65.48;100643.92;1773940;79;21233;-53
2021/12/26 08:28:42;;;;;;;14.03;7.00;;;;;;;-2.20;65.41;100640.19;1762320;80;22008;-55
2021/12/26 08:31:49;;;;;;;16.05;8.35;;;;;;;-2.18;65.34;100630.25;1774780;79;21221;-53
2021/12/26 08:34:59;;;;;;;11.78;6.60;;;;;;;-2.17;65.32;100623.45;1768191;80;21308;-52
2021/12/26 08:38:09;;;;;;;9.65;5.92;;;;;;;-2.16;65.11;100621.17;1779719;79;21201;-53
2021/12/26 08:41:15;;;;;;;14.63;7.25;;;;;;;-2.15;65.16;100629.59;1811440;78;21357;-54
2021/12/26 08:44:22;;;;;;;10.48;5.70;;;;;;;-2.12;65.07;100629.41;1811136;79;21354;-53
2021/12/26 08:47:29;;;;;;;7.65;5.28;;;;;;;-2.10;65.08;100619.47;1811004;79;21270;-54
2021/12/26 08:50:37;;;;;;;8.53;5.28;;;;;;;-2.04;65.03;100619.56;1811551;79;21200;-53
2021/12/26 08:53:42;;;;;;;9.90;5.85;;;;;;;-1.98;64.98;100628.11;1811506;79;21179;-53
2021/12/26 08:56:49;;;;;;;9.95;5.20;;;;;;;-1.91;64.89;100625.93;1810745;79;21207;-54
2021/12/26 08:59:58;;;;;;;14.80;7.17;;;;;;;-1.86;64.66;100619.35;1810933;79;21169;-54
2021/12/26 09:03:08;;;;;;;12.28;5.58;;;;;;;-1.80;64.62;100617.63;1811643;79;21216;-53
2021/12/26 09:06:13;;;;;;;10.93;7.05;;;;;;;-1.70;64.26;100609.89;1811628;79;21212;-52
2021/12/26 09:09:18;;;;;;;36.45;16.02;;;;;;;-1.65;63.54;100611.32;1780569;80;21722;-53
2021/12/26 09:12:23;;;;;;;25.00;11.38;;;;;;;-1.62;62.68;100607.61;1800290;79;21165;-53
2021/12/26 09:15:29;;;;;;;13.13;6.17;;;;;;;-1.61;62.52;100607.98;1810480;79;21561;-53
2021/12/26 09:18:35;;;;;;;26.68;10.18;;;;;;;-1.60;61.93;100604.33;1805872;79;21303;-53
2021/12/26 09:21:41;;;;;;;12.40;5.15;;;;;;;-1.61;61.96;100602.14;1756532;80;21220;-53
2021/12/26 09:24:46;;;;;;;14.90;6.65;;;;;;;-1.57;61.68;100602.83;1809781;79;21693;-53
2021/12/26 09:27:52;;;;;;;16.57;7.85;;;;;;;-1.55;61.66;100596.86;1766981;81;21741;-53
2021/12/26 09:30:58;;;;;;;15.23;8.08;;;;;;;-1.44;61.93;100601.59;1782952;79;21216;-53
2021/12/26 09:34:03;;;;;;;15.95;7.47;;;;;;;-1.34;62.04;100589.30;1766710;80;21311;-53
2021/12/26 09:37:15;;;;;;;18.77;9.55;;;;;;;-1.29;61.79;100589.87;1767188;80;21699;-53
2021/12/26 09:40:22;;;;;;;18.55;7.90;;;;;;;-1.25;61.41;100593.61;1767261;80;21205;-53
2021/12/26 09:43:27;;;;;;;12.63;7.17;;;;;;;-1.24;61.04;100593.14;1767639;79;22155;-53
2021/12/26 09:46:38;;;;;;;14.25;6.80;;;;;;;-1.20;61.07;100590.16;1772730;80;21205;-53
2021/12/26 09:49:44;;;;;;;19.02;8.80;;;;;;;-1.12;60.65;100591.01;1746865;81;21268;-53
2021/12/26 09:52:54;;;;;;;14.55;7.47;;;;;;;-1.10;60.26;100593.13;1749415;81;21736;-52
2021/12/26 09:56:02;;;;;;;13.53;6.60;;;;;;;-1.09;60.14;100593.02;1737024;82;21414;-56
2021/12/26 09:59:30;;;;;;;18.85;9.00;;;;;;;-1.07;60.04;100599.64;1737018;81;21289;-51
2021/12/26 10:02:37;;;;;;;19.98;10.43;;;;;;;-1.04;59.94;100594.07;1739881;80;21332;-52
2021/12/26 10:06:20;;;;;;;15.00;8.05;;;;;;;-0.96;60.07;100590.41;1736722;82;21383;-51
2021/12/26 10:09:24;;;;;;;20.30;9.10;;;;;;;-0.92;59.87;100587.93;1736257;82;21205;-52
2021/12/26 10:12:30;;;;;;;22.15;8.95;;;;;;;-0.91;59.64;100584.27;1736610;81;21868;-53
2021/12/26 10:15:56;;;;;;;15.48;7.03;;;;;;;-0.83;59.41;100580.61;1736617;82;21177;-52
2021/12/26 10:19:01;;;;;;;13.78;6.45;;;;;;;-0.76;59.09;100577.92;1745165;79;21218;-51
2021/12/26 10:22:10;;;;;;;14.03;8.25;;;;;;;-0.68;58.76;100575.59;1810876;79;21190;-52
2021/12/26 10:25:22;;;;;;;9.95;5.80;;;;;;;-0.66;58.58;100569.14;1811398;79;21359;-52
2021/12/26 10:28:28;;;;;;;11.43;5.70;;;;;;;-0.65;58.21;100570.02;1809571;79;21247;-51
2021/12/26 10:31:33;;;;;;;10.90;6.55;;;;;;;-0.62;58.21;100569.30;1779322;80;21215;-51
2021/12/26 10:34:50;;;;;;;15.20;6.28;;;;;;;-0.56;57.89;100570.75;1809925;79;21236;-52
2021/12/26 10:38:00;;;;;;;8.38;5.55;;;;;;;-0.51;57.89;100575.34;1736038;82;21204;-52
2021/12/26 10:41:07;;;;;;;19.85;9.45;;;;;;;-0.45;57.67;100574.92;1731943;82;21367;-51
2021/12/26 10:44:12;;;;;;;14.70;6.85;;;;;;;-0.44;57.48;100564.07;1804094;79;21283;-52
2021/12/26 10:47:22;;;;;;;13.22;7.60;;;;;;;-0.37;57.72;100567.22;1788245;79;21197;-51
2021/12/26 10:50:33;;;;;;;13.58;6.83;;;;;;;-0.32;57.45;100564.58;1804404;79;21741;-52
2021/12/26 10:53:37;;;;;;;11.25;6.45;;;;;;;-0.27;57.55;100566.48;1803714;78;21600;-51
2021/12/26 10:56:42;;;;;;;14.15;7.45;;;;;;;-0.17;57.52;100569.41;1798063;79;21188;-52
2021/12/26 10:59:52;;;;;;;52.85;26.45;;;;;;;-0.15;57.04;100563.45;1799573;79;21181;-51
2021/12/26 11:03:05;;;;;;;22.62;10.58;;;;;;;-0.14;57.02;100567.86;1807947;79;21195;-52
2021/12/26 11:06:16;;;;;;;31.82;15.58;;;;;;;-0.11;57.17;100569.86;1808084;79;21560;-52
2021/12/26 11:09:27;;;;;;;33.58;13.85;;;;;;;-0.09;57.09;100571.97;1807812;79;21204;-52
2021/12/26 11:12:32;;;;;;;25.27;11.35;;;;;;;-0.12;56.84;100574.00;1806145;79;21529;-50
2021/12/26 11:15:46;;;;;;;45.23;21.12;;;;;;;-0.15;56.68;100569.70;1779383;79;21212;-50
2021/12/26 11:19:02;;;;;;;25.45;11.20;;;;;;;-0.14;56.59;100574.11;1766903;79;21694;-49
2021/12/26 11:22:09;;;;;;;16.97;8.08;;;;;;;-0.13;56.09;100571.78;1732041;81;21355;-50
2021/12/26 11:25:16;;;;;;;13.28;7.05;;;;;;;-0.10;56.25;100567.57;1746218;82;21307;-50
2021/12/26 11:28:28;;;;;;;16.32;9.03;;;;;;;-0.05;55.94;100569.95;1745987;82;21228;-52
2021/12/26 11:31:36;;;;;;;17.02;9.63;;;;;;;-0.02;56.28;100565.19;1745846;82;21378;-51
2021/12/26 11:34:43;;;;;;;16.27;8.80;;;;;;;0.02;56.47;100568.54;1745714;82;21224;-50
2021/12/26 11:37:50;;;;;;;16.97;9.90;;;;;;;0.05;56.73;100565.64;1727562;82;21456;-51
2021/12/26 11:41:25;;;;;;;12.85;6.25;;;;;;;0.06;56.99;100571.42;1711115;83;21296;-51
2021/12/26 11:45:21;;;;;;;14.03;6.10;;;;;;;0.07;57.16;100573.13;1723941;82;21788;-50
2021/12/26 11:49:07;;;;;;;12.65;6.22;;;;;;;0.11;56.96;100574.66;1782081;79;21200;-50
2021/12/26 11:52:56;;;;;;;8.23;4.90;;;;;;;0.13;56.42;100570.52;1766248;81;21942;-50
2021/12/26 11:56:43;;;;;;;9.50;5.30;;;;;;;0.16;56.12;100576.52;1765322;80;21193;-53
2021/12/26 12:00:06;;;;;;;;;;;;;;;0.19;55.80;100580.34;1781967;79;21383;-51
2021/12/26 12:03:16;;;;;;;10.40;5.65;;;;;;;0.23;55.84;100588.61;1788989;80;20279;-51
2021/12/26 12:06:34;;;;;;;12.63;6.22;;;;;;;0.23;55.87;100581.00;1791573;79;21346;-53
2021/12/26 12:09:46;;;;;;;10.13;5.20;;;;;;;0.25;56.17;100577.25;1780963;79;21176;-51
2021/12/26 12:12:54;;;;;;;11.08;5.58;;;;;;;0.30;56.00;100585.01;1787041;79;21240;-50
2021/12/26 12:16:03;;;;;;;7.22;3.62;;;;;;;0.31;55.01;100579.52;1765624;80;21300;-52
2021/12/26 12:19:16;;;;;;;10.93;6.40;;;;;;;0.32;54.80;100582.58;1735154;82;21169;-52
2021/12/26 12:22:22;;;;;;;7.85;4.78;;;;;;;0.36;55.00;100582.76;1726335;82;21171;-51
2021/12/26 12:25:49;;;;;;;9.50;5.03;;;;;;;0.42;54.35;100586.84;1734855;81;21219;-51
2021/12/26 12:28:55;;;;;;;7.47;3.80;;;;;;;0.44;54.05;100595.20;1753457;81;21575;-51
2021/12/26 12:32:30;;;;;;;6.45;3.55;;;;;;;0.50;53.70;100593.42;1775174;80;21215;-49
2021/12/26 12:35:56;;;;;;;7.05;4.00;;;;;;;0.55;53.41;100595.31;1775559;80;21546;-57
2021/12/26 12:39:01;;;;;;;10.32;4.47;;;;;;;0.58;53.26;100597.79;1706258;83;21184;-51
2021/12/26 12:42:10;;;;;;;10.88;4.70;;;;;;;0.60;53.38;100594.52;1802849;79;21295;-51
2021/12/26 12:45:14;;;;;;;6.25;3.67;;;;;;;0.64;53.53;100596.48;1803180;79;21323;-51
2021/12/26 12:48:49;;;;;;;9.25;4.75;;;;;;;0.69;53.41;100598.36;1792742;80;21311;-51
2021/12/26 12:51:56;;;;;;;7.00;4.83;;;;;;;0.70;53.10;100600.95;1766969;81;21197;-51
2021/12/26 12:55:06;;;;;;;18.90;10.53;;;;;;;0.66;53.00;100596.77;1746357;80;21962;-51
2021/12/26 12:58:31;;;;;;;10.93;4.83;;;;;;;0.64;53.05;100605.43;1740413;81;21343;-52
2021/12/26 13:01:47;;;;;;;16.95;8.80;;;;;;;0.64;53.27;100614.86;1687125;84;21773;-51
2021/12/26 13:04:55;;;;;;;15.78;7.08;;;;;;;0.63;53.44;100614.48;1693725;84;21205;-51
2021/12/26 13:08:06;;;;;;;21.02;11.38;;;;;;;0.62;53.47;100614.09;1705696;84;21709;-50
2021/12/26 13:11:16;;;;;;;13.03;8.75;;;;;;;0.59;53.75;100619.70;1742687;81;21219;-50
2021/12/26 13:14:20;;;;;;;21.73;12.78;;;;;;;0.57;53.95;100622.97;1750118;82;21263;-50
2021/12/26 13:17:39;;;;;;;20.68;9.75;;;;;;;0.51;54.25;100621.22;1782710;79;21176;-50
2021/12/26 13:20:44;;;;;;;28.20;14.95;;;;;;;0.45;54.43;100619.80;1808412;79;21625;-51
2021/12/26 13:23:50;;;;;;;27.27;12.45;;;;;;;0.38;54.53;100626.56;1797795;79;21818;-50
2021/12/26 13:26:56;;;;;;;19.87;8.00;;;;;;;0.29;54.64;100623.64;1793281;79;21250;-52
2021/12/26 13:30:03;;;;;;;21.85;10.80;;;;;;;0.19;54.84;100629.30;1790120;80;21253;-51
2021/12/26 13:33:09;;;;;;;19.50;10.32;;;;;;;0.10;55.11;100625.86;1790512;79;21217;-51
2021/12/26 13:36:30;;;;;;;21.90;10.60;;;;;;;-0.02;55.38;100627.58;1790463;80;21215;-51
2021/12/26 13:39:34;;;;;;;16.15;7.58;;;;;;;-0.10;55.69;100636.17;1793605;79;21319;-52
2021/12/26 13:42:39;;;;;;;14.18;7.58;;;;;;;-0.20;55.97;100635.52;1787366;80;21709;-51
2021/12/26 13:45:51;;;;;;;19.35;10.55;;;;;;;-0.32;56.14;100637.19;1787413;80;21888;-51
2021/12/26 13:49:02;;;;;;;53.35;24.65;;;;;;;-0.46;56.41;100638.58;1770505;80;21890;-53
2021/12/26 13:52:12;;;;;;;51.77;28.00;;;;;;;-0.56;56.83;100646.02;1787420;80;21324;-52
2021/12/26 13:55:16;;;;;;;28.52;17.55;;;;;;;-0.66;57.23;100651.13;1783097;79;21600;-51
2021/12/26 13:58:26;;;;;;;26.93;12.25;;;;;;;-0.75;57.66;100644.13;1778274;80;21753;-52
2021/12/26 14:01:31;;;;;;;27.40;13.72;;;;;;;-0.82;58.16;100653.53;1780048;80;21221;-54
2021/12/26 14:04:39;;;;;;;24.40;13.03;;;;;;;-0.88;58.54;100660.17;1788892;79;21184;-52
2021/12/26 14:07:58;;;;;;;26.30;12.70;;;;;;;-0.94;58.84;100672.66;1788436;80;21185;-53
2021/12/26 14:11:09;;;;;;;26.33;13.48;;;;;;;-0.99;59.11;100676.58;1789505;80;21264;-52
2021/12/26 14:14:20;;;;;;;27.58;14.95;;;;;;;-1.07;59.33;100672.16;1789932;80;21339;-51
2021/12/26 14:17:21;;;;;;;37.10;19.02;;;;;;;-1.15;59.62;100679.36;1789866;79;21323;-52
2021/12/26 14:20:26;;;;;;;32.38;18.80;;;;;;;-1.20;59.86;100681.93;1757368;81;21185;-52
2021/12/26 14:23:43;;;;;;;41.50;21.62;;;;;;;-1.23;60.08;100687.49;1747172;79;21730;-52
2021/12/26 14:26:52;;;;;;;44.58;20.15;;;;;;;-1.26;60.23;100689.03;1765821;80;21734;-52
2021/12/26 14:30:07;;;;;;;39.27;20.25;;;;;;;-1.30;60.46;100697.74;1767566;79;21188;-52
2021/12/26 14:33:14;;;;;;;32.17;13.40;;;;;;;-1.30;60.64;100696.90;1768420;80;21781;-53
2021/12/26 14:36:19;;;;;;;42.20;20.70;;;;;;;-1.32;60.81;100690.75;1768883;80;21674;-52
2021/12/26 14:39:47;;;;;;;42.23;17.50;;;;;;;-1.34;60.95;100698.90;1769677;80;21710;-52
2021/12/26 14:42:55;;;;;;;45.88;19.65;;;;;;;-1.38;61.05;100701.41;1762201;80;21794;-52